sensor_id;sensor_type;location;lat;lon;timestamp;temperature;humidity
56512;DHT22;42408;53.238;5.686;2023-04-01T00:01:10;10.50;99.90
56512;DHT22;42408;53.238;5.686;2023-04-01T00:03:39;10.50;99.90
56512;DHT22;42408;53.238;5.686;2023-04-01T00:06:05;10.50;99.90
56512;DHT22;42408;53.238;5.686;2023-04-01T00:08:31;10.40;99.90
56512;DHT22;42408;53.238;5.686;2023-04-01T00:10:57;10.50;99.90
56512;DHT22;42408;53.238;5.686;2023-04-01T00:13:25;10.40;99.90
56512;DHT22;42408;53.238;5.686;2023-04-01T00:15:52;10.40;99.90
56512;DHT22;42408;53.238;5.686;2023-04-01T00:18:18;10.50;99.90
56512;DHT22;42408;53.238;5.686;2023-04-01T00:20:46;10.40;99.90
56512;DHT22;42408;53.238;5.686;2023-04-01T00:23:12;10.40;99.90
56512;DHT22;42408;53.238;5.686;2023-04-01T00:25:38;10.40;99.90
56512;DHT22;42408;53.238;5.686;2023-04-01T00:28:04;10.40;99.90
56512;DHT22;42408;53.238;5.686;2023-04-01T00:30:29;10.50;99.90
56512;DHT22;42408;53.238;5.686;2023-04-01T00:32:55;10.40;99.90
56512;DHT22;42408;53.238;5.686;2023-04-01T00:35:21;10.40;99.90
56512;DHT22;42408;53.238;5.686;2023-04-01T00:37:47;10.50;99.90
56512;DHT22;42408;53.238;5.686;2023-04-01T00:40:28;10.40;99.90
56512;DHT22;42408;53.238;5.686;2023-04-01T00:42:55;10.40;99.90
56512;DHT22;42408;53.238;5.686;2023-04-01T00:47:49;10.40;99.90
56512;DHT22;42408;53.238;5.686;2023-04-01T00:50:15;10.40;99.90
56512;DHT22;42408;53.238;5.686;2023-04-01T00:52:41;10.40;99.90
56512;DHT22;42408;53.238;5.686;2023-04-01T00:55:11;10.40;99.90
56512;DHT22;42408;53.238;5.686;2023-04-01T00:57:40;10.40;99.90
56512;DHT22;42408;53.238;5.686;2023-04-01T01:00:10;10.40;99.90
56512;DHT22;42408;53.238;5.686;2023-04-01T01:02:36;10.40;99.90
56512;DHT22;42408;53.238;5.686;2023-04-01T01:05:02;10.30;99.90
56512;DHT22;42408;53.238;5.686;2023-04-01T01:10:39;10.40;99.90
56512;DHT22;42408;53.238;5.686;2023-04-01T01:13:11;10.40;99.90
56512;DHT22;42408;53.238;5.686;2023-04-01T01:16:43;10.40;99.90
56512;DHT22;42408;53.238;5.686;2023-04-01T01:19:07;10.30;99.90
56512;DHT22;42408;53.238;5.686;2023-04-01T01:27:06;10.30;99.90
56512;DHT22;42408;53.238;5.686;2023-04-01T01:32:52;10.30;99.90
56512;DHT22;42408;53.238;5.686;2023-04-01T01:35:46;10.30;99.90
56512;DHT22;42408;53.238;5.686;2023-04-01T01:38:15;10.20;99.90
56512;DHT22;42408;53.238;5.686;2023-04-01T01:40:44;10.20;99.90
56512;DHT22;42408;53.238;5.686;2023-04-01T01:43:16;10.20;99.90
56512;DHT22;42408;53.238;5.686;2023-04-01T01:45:48;10.20;99.90
56512;DHT22;42408;53.238;5.686;2023-04-01T01:48:15;10.20;99.90
56512;DHT22;42408;53.238;5.686;2023-04-01T01:50:43;10.10;99.90
56512;DHT22;42408;53.238;5.686;2023-04-01T01:53:12;10.10;99.90
56512;DHT22;42408;53.238;5.686;2023-04-01T01:55:43;10.10;99.90
56512;DHT22;42408;53.238;5.686;2023-04-01T02:00:59;10.20;99.90
56512;DHT22;42408;53.238;5.686;2023-04-01T02:03:30;10.10;99.90
56512;DHT22;42408;53.238;5.686;2023-04-01T02:05:59;10.10;99.90
56512;DHT22;42408;53.238;5.686;2023-04-01T02:08:36;10.10;99.90
56512;DHT22;42408;53.238;5.686;2023-04-01T02:11:06;10.00;99.90
56512;DHT22;42408;53.238;5.686;2023-04-01T02:19:13;10.00;99.90
56512;DHT22;42408;53.238;5.686;2023-04-01T02:21:40;10.00;99.90
56512;DHT22;42408;53.238;5.686;2023-04-01T02:24:11;10.00;99.90
56512;DHT22;42408;53.238;5.686;2023-04-01T02:26:38;9.90;99.90
56512;DHT22;42408;53.238;5.686;2023-04-01T02:29:05;10.00;99.90
56512;DHT22;42408;53.238;5.686;2023-04-01T02:31:32;10.00;99.90
56512;DHT22;42408;53.238;5.686;2023-04-01T02:33:58;10.00;99.90
56512;DHT22;42408;53.238;5.686;2023-04-01T02:36:24;10.00;99.90
56512;DHT22;42408;53.238;5.686;2023-04-01T02:38:51;10.00;99.90
56512;DHT22;42408;53.238;5.686;2023-04-01T02:41:17;10.00;99.90
56512;DHT22;42408;53.238;5.686;2023-04-01T02:43:43;10.00;99.90
56512;DHT22;42408;53.238;5.686;2023-04-01T02:46:09;10.10;99.90
56512;DHT22;42408;53.238;5.686;2023-04-01T02:48:35;10.00;99.90
56512;DHT22;42408;53.238;5.686;2023-04-01T02:51:00;10.00;99.90
56512;DHT22;42408;53.238;5.686;2023-04-01T02:53:26;10.10;99.90
56512;DHT22;42408;53.238;5.686;2023-04-01T02:55:52;10.00;99.90
56512;DHT22;42408;53.238;5.686;2023-04-01T02:58:18;10.00;99.90
56512;DHT22;42408;53.238;5.686;2023-04-01T03:00:43;10.00;99.90
56512;DHT22;42408;53.238;5.686;2023-04-01T03:03:12;10.00;99.90
56512;DHT22;42408;53.238;5.686;2023-04-01T03:05:39;10.00;99.90
56512;DHT22;42408;53.238;5.686;2023-04-01T03:08:04;10.10;99.90
56512;DHT22;42408;53.238;5.686;2023-04-01T03:10:31;10.00;99.90
56512;DHT22;42408;53.238;5.686;2023-04-01T03:12:57;10.00;99.90
56512;DHT22;42408;53.238;5.686;2023-04-01T03:15:22;10.00;99.90
56512;DHT22;42408;53.238;5.686;2023-04-01T03:17:48;10.00;99.90
56512;DHT22;42408;53.238;5.686;2023-04-01T03:20:14;10.00;99.90
56512;DHT22;42408;53.238;5.686;2023-04-01T03:22:41;10.00;99.90
56512;DHT22;42408;53.238;5.686;2023-04-01T03:25:07;10.00;99.90
56512;DHT22;42408;53.238;5.686;2023-04-01T03:27:33;10.00;99.90
56512;DHT22;42408;53.238;5.686;2023-04-01T03:30:01;10.00;99.90
56512;DHT22;42408;53.238;5.686;2023-04-01T03:32:27;10.00;99.90
56512;DHT22;42408;53.238;5.686;2023-04-01T03:34:53;10.10;99.90
56512;DHT22;42408;53.238;5.686;2023-04-01T03:37:18;10.00;99.90
56512;DHT22;42408;53.238;5.686;2023-04-01T03:39:44;10.00;99.90
56512;DHT22;42408;53.238;5.686;2023-04-01T03:42:11;10.00;99.90
56512;DHT22;42408;53.238;5.686;2023-04-01T03:44:37;10.00;99.90
56512;DHT22;42408;53.238;5.686;2023-04-01T03:47:03;10.00;99.90
56512;DHT22;42408;53.238;5.686;2023-04-01T03:49:28;10.00;99.90
56512;DHT22;42408;53.238;5.686;2023-04-01T03:51:54;10.00;99.90
56512;DHT22;42408;53.238;5.686;2023-04-01T03:54:20;10.00;99.90
56512;DHT22;42408;53.238;5.686;2023-04-01T03:56:46;10.00;99.90
56512;DHT22;42408;53.238;5.686;2023-04-01T03:59:12;10.00;99.90
56512;DHT22;42408;53.238;5.686;2023-04-01T04:01:38;10.00;99.90
56512;DHT22;42408;53.238;5.686;2023-04-01T04:04:04;10.00;99.90
56512;DHT22;42408;53.238;5.686;2023-04-01T04:06:30;9.90;99.90
56512;DHT22;42408;53.238;5.686;2023-04-01T04:08:56;9.90;99.90
56512;DHT22;42408;53.238;5.686;2023-04-01T04:11:22;9.90;99.90
56512;DHT22;42408;53.238;5.686;2023-04-01T04:13:48;10.00;99.90
56512;DHT22;42408;53.238;5.686;2023-04-01T04:16:15;9.90;99.90
56512;DHT22;42408;53.238;5.686;2023-04-01T04:18:41;9.90;99.90
56512;DHT22;42408;53.238;5.686;2023-04-01T04:21:10;9.90;99.90
56512;DHT22;42408;53.238;5.686;2023-04-01T04:23:36;9.90;99.90
56512;DHT22;42408;53.238;5.686;2023-04-01T04:26:04;9.90;99.90
56512;DHT22;42408;53.238;5.686;2023-04-01T04:28:30;10.00;99.90
56512;DHT22;42408;53.238;5.686;2023-04-01T04:30:57;9.90;99.90
56512;DHT22;42408;53.238;5.686;2023-04-01T04:33:23;9.90;99.90
56512;DHT22;42408;53.238;5.686;2023-04-01T04:35:49;9.90;99.90
56512;DHT22;42408;53.238;5.686;2023-04-01T04:38:15;10.00;99.90
56512;DHT22;42408;53.238;5.686;2023-04-01T04:40:42;10.00;99.90
56512;DHT22;42408;53.238;5.686;2023-04-01T04:43:11;10.00;99.90
56512;DHT22;42408;53.238;5.686;2023-04-01T04:45:37;10.00;99.90
56512;DHT22;42408;53.238;5.686;2023-04-01T04:48:03;10.00;99.90
56512;DHT22;42408;53.238;5.686;2023-04-01T04:50:29;10.00;99.90
56512;DHT22;42408;53.238;5.686;2023-04-01T04:52:54;10.00;99.90
56512;DHT22;42408;53.238;5.686;2023-04-01T04:55:20;10.00;99.90
56512;DHT22;42408;53.238;5.686;2023-04-01T04:57:46;9.90;99.90
56512;DHT22;42408;53.238;5.686;2023-04-01T05:00:12;10.00;99.90
56512;DHT22;42408;53.238;5.686;2023-04-01T05:02:38;10.00;99.90
56512;DHT22;42408;53.238;5.686;2023-04-01T05:05:04;10.00;99.90
56512;DHT22;42408;53.238;5.686;2023-04-01T05:07:30;9.90;99.90
56512;DHT22;42408;53.238;5.686;2023-04-01T05:09:55;9.90;99.90
56512;DHT22;42408;53.238;5.686;2023-04-01T05:12:21;10.00;99.90
56512;DHT22;42408;53.238;5.686;2023-04-01T05:14:47;10.00;99.90
56512;DHT22;42408;53.238;5.686;2023-04-01T05:17:13;9.90;99.90
56512;DHT22;42408;53.238;5.686;2023-04-01T05:19:39;9.90;99.90
56512;DHT22;42408;53.238;5.686;2023-04-01T05:22:05;10.00;99.90
56512;DHT22;42408;53.238;5.686;2023-04-01T05:24:32;10.00;99.90
56512;DHT22;42408;53.238;5.686;2023-04-01T05:26:58;10.00;99.90
56512;DHT22;42408;53.238;5.686;2023-04-01T05:29:25;10.00;99.90
56512;DHT22;42408;53.238;5.686;2023-04-01T05:31:51;9.90;99.90
56512;DHT22;42408;53.238;5.686;2023-04-01T05:34:17;10.00;99.90
56512;DHT22;42408;53.238;5.686;2023-04-01T05:36:43;10.00;99.90
56512;DHT22;42408;53.238;5.686;2023-04-01T05:39:09;10.00;99.90
56512;DHT22;42408;53.238;5.686;2023-04-01T05:41:38;10.00;99.90
56512;DHT22;42408;53.238;5.686;2023-04-01T05:44:05;9.90;99.90
56512;DHT22;42408;53.238;5.686;2023-04-01T05:46:31;9.90;99.90
56512;DHT22;42408;53.238;5.686;2023-04-01T05:48:57;9.90;99.90
56512;DHT22;42408;53.238;5.686;2023-04-01T05:51:23;9.90;99.90
56512;DHT22;42408;53.238;5.686;2023-04-01T05:53:49;10.00;99.90
56512;DHT22;42408;53.238;5.686;2023-04-01T05:56:15;10.00;99.90
56512;DHT22;42408;53.238;5.686;2023-04-01T05:58:40;10.00;99.90
56512;DHT22;42408;53.238;5.686;2023-04-01T06:01:08;10.00;99.90
56512;DHT22;42408;53.238;5.686;2023-04-01T06:03:34;9.90;99.90
56512;DHT22;42408;53.238;5.686;2023-04-01T06:06:00;9.90;99.90
56512;DHT22;42408;53.238;5.686;2023-04-01T06:08:27;9.90;99.90
56512;DHT22;42408;53.238;5.686;2023-04-01T06:16:49;9.80;99.90
56512;DHT22;42408;53.238;5.686;2023-04-01T06:33:17;9.80;99.90
56512;DHT22;42408;53.238;5.686;2023-04-01T06:35:54;9.80;99.90
56512;DHT22;42408;53.238;5.686;2023-04-01T06:43:55;9.90;99.90
56512;DHT22;42408;53.238;5.686;2023-04-01T06:47:04;9.90;99.90
56512;DHT22;42408;53.238;5.686;2023-04-01T06:49:54;9.90;99.90
56512;DHT22;42408;53.238;5.686;2023-04-01T06:55:00;10.00;99.90
56512;DHT22;42408;53.238;5.686;2023-04-01T06:57:55;10.00;99.90
56512;DHT22;42408;53.238;5.686;2023-04-01T07:05:52;10.10;99.90
56512;DHT22;42408;53.238;5.686;2023-04-01T07:08:24;10.10;99.90
56512;DHT22;42408;53.238;5.686;2023-04-01T07:11:04;10.00;99.90
56512;DHT22;42408;53.238;5.686;2023-04-01T07:13:35;10.10;99.90
56512;DHT22;42408;53.238;5.686;2023-04-01T07:16:12;10.10;99.90
56512;DHT22;42408;53.238;5.686;2023-04-01T07:21:26;10.10;99.90
56512;DHT22;42408;53.238;5.686;2023-04-01T07:23:58;10.10;99.90
56512;DHT22;42408;53.238;5.686;2023-04-01T07:26:26;10.10;99.90
56512;DHT22;42408;53.238;5.686;2023-04-01T07:28:53;10.10;99.90
56512;DHT22;42408;53.238;5.686;2023-04-01T07:31:51;10.00;99.90
56512;DHT22;42408;53.238;5.686;2023-04-01T07:34:26;10.10;99.90
56512;DHT22;42408;53.238;5.686;2023-04-01T07:50:31;10.00;99.90
56512;DHT22;42408;53.238;5.686;2023-04-01T08:00:55;10.10;99.90
56512;DHT22;42408;53.238;5.686;2023-04-01T08:14:30;10.10;99.90
56512;DHT22;42408;53.238;5.686;2023-04-01T08:17:02;10.10;99.90
56512;DHT22;42408;53.238;5.686;2023-04-01T08:22:18;10.20;99.90
56512;DHT22;42408;53.238;5.686;2023-04-01T08:24:46;10.10;99.90
56512;DHT22;42408;53.238;5.686;2023-04-01T08:27:37;10.10;99.90
56512;DHT22;42408;53.238;5.686;2023-04-01T08:30:35;10.10;99.90
56512;DHT22;42408;53.238;5.686;2023-04-01T08:38:21;10.20;99.90
56512;DHT22;42408;53.238;5.686;2023-04-01T08:40:58;10.20;99.90
56512;DHT22;42408;53.238;5.686;2023-04-01T08:51:49;10.40;99.90
56512;DHT22;42408;53.238;5.686;2023-04-01T08:54:34;10.40;99.90
56512;DHT22;42408;53.238;5.686;2023-04-01T08:57:31;10.40;99.90
56512;DHT22;42408;53.238;5.686;2023-04-01T09:25:41;10.50;99.90
56512;DHT22;42408;53.238;5.686;2023-04-01T09:28:12;10.60;99.90
56512;DHT22;42408;53.238;5.686;2023-04-01T09:39:27;10.90;99.90
56512;DHT22;42408;53.238;5.686;2023-04-01T09:45:16;10.90;99.90
56512;DHT22;42408;53.238;5.686;2023-04-01T09:48:16;10.90;99.90
56512;DHT22;42408;53.238;5.686;2023-04-01T09:50:55;10.90;99.90
56512;DHT22;42408;53.238;5.686;2023-04-01T09:53:54;10.90;99.90
56512;DHT22;42408;53.238;5.686;2023-04-01T09:59:29;10.80;99.90
56512;DHT22;42408;53.238;5.686;2023-04-01T10:05:17;10.70;99.90
56512;DHT22;42408;53.238;5.686;2023-04-01T10:36:41;10.40;99.90
56512;DHT22;42408;53.238;5.686;2023-04-01T10:44:52;10.50;99.90
56512;DHT22;42408;53.238;5.686;2023-04-01T10:56:27;10.20;99.90
56512;DHT22;42408;53.238;5.686;2023-04-01T11:32:21;9.80;99.90
56512;DHT22;42408;53.238;5.686;2023-04-01T11:38:26;9.90;99.90
56512;DHT22;42408;53.238;5.686;2023-04-01T11:43:54;9.90;99.90
56512;DHT22;42408;53.238;5.686;2023-04-01T11:46:37;9.90;99.90
56512;DHT22;42408;53.238;5.686;2023-04-01T12:06:35;9.60;99.90
56512;DHT22;42408;53.238;5.686;2023-04-01T12:11:48;9.60;99.90
56512;DHT22;42408;53.238;5.686;2023-04-01T12:14:54;9.50;99.90
56512;DHT22;42408;53.238;5.686;2023-04-01T12:23:50;9.60;99.90
56512;DHT22;42408;53.238;5.686;2023-04-01T12:26:52;9.60;99.90
56512;DHT22;42408;53.238;5.686;2023-04-01T12:35:32;9.70;99.90
56512;DHT22;42408;53.238;5.686;2023-04-01T12:38:06;9.70;99.90
56512;DHT22;42408;53.238;5.686;2023-04-01T12:51:53;9.60;99.90
56512;DHT22;42408;53.238;5.686;2023-04-01T12:59:57;9.50;99.90
56512;DHT22;42408;53.238;5.686;2023-04-01T13:11:33;9.60;99.90
56512;DHT22;42408;53.238;5.686;2023-04-01T13:19:58;9.70;99.90
56512;DHT22;42408;53.238;5.686;2023-04-01T13:25:36;9.70;99.90
56512;DHT22;42408;53.238;5.686;2023-04-01T13:31:06;9.60;99.90
56512;DHT22;42408;53.238;5.686;2023-04-01T13:33:41;9.50;99.90
56512;DHT22;42408;53.238;5.686;2023-04-01T13:36:16;9.60;99.90
56512;DHT22;42408;53.238;5.686;2023-04-01T13:58:28;9.60;99.90
56512;DHT22;42408;53.238;5.686;2023-04-01T14:01:35;9.70;99.90
56512;DHT22;42408;53.238;5.686;2023-04-01T14:06:49;9.60;99.90
56512;DHT22;42408;53.238;5.686;2023-04-01T14:20:40;9.60;99.90
56512;DHT22;42408;53.238;5.686;2023-04-01T14:23:13;9.70;99.90
56512;DHT22;42408;53.238;5.686;2023-04-01T14:42:45;9.60;99.90
56512;DHT22;42408;53.238;5.686;2023-04-01T14:48:25;9.60;99.90
56512;DHT22;42408;53.238;5.686;2023-04-01T14:51:48;9.60;99.90
56512;DHT22;42408;53.238;5.686;2023-04-01T14:59:26;9.40;99.90
56512;DHT22;42408;53.238;5.686;2023-04-01T15:05:14;9.40;99.90
56512;DHT22;42408;53.238;5.686;2023-04-01T15:19:14;9.30;99.90
56512;DHT22;42408;53.238;5.686;2023-04-01T15:24:25;9.20;99.90
56512;DHT22;42408;53.238;5.686;2023-04-01T15:30:23;9.20;99.90
56512;DHT22;42408;53.238;5.686;2023-04-01T15:42:23;9.20;99.90
56512;DHT22;42408;53.238;5.686;2023-04-01T15:53:03;9.20;99.90
56512;DHT22;42408;53.238;5.686;2023-04-01T15:55:42;9.10;99.90
56512;DHT22;42408;53.238;5.686;2023-04-01T16:00:47;9.00;99.90
56512;DHT22;42408;53.238;5.686;2023-04-01T16:03:30;8.90;99.90
56512;DHT22;42408;53.238;5.686;2023-04-01T16:14:54;8.80;99.90
56512;DHT22;42408;53.238;5.686;2023-04-01T16:23:56;8.80;99.90
56512;DHT22;42408;53.238;5.686;2023-04-01T16:29:03;8.70;99.90
56512;DHT22;42408;53.238;5.686;2023-04-01T16:31:37;8.80;99.90
56512;DHT22;42408;53.238;5.686;2023-04-01T16:34:14;8.80;99.90
56512;DHT22;42408;53.238;5.686;2023-04-01T16:39:53;8.70;99.90
56512;DHT22;42408;53.238;5.686;2023-04-01T16:42:51;8.70;99.90
56512;DHT22;42408;53.238;5.686;2023-04-01T16:47:49;8.60;99.90
56512;DHT22;42408;53.238;5.686;2023-04-01T16:50:26;8.70;99.90
56512;DHT22;42408;53.238;5.686;2023-04-01T16:58:26;8.60;99.90
56512;DHT22;42408;53.238;5.686;2023-04-01T17:01:05;8.60;99.90
56512;DHT22;42408;53.238;5.686;2023-04-01T17:09:55;8.50;99.90
56512;DHT22;42408;53.238;5.686;2023-04-01T17:18:39;8.40;99.90
56512;DHT22;42408;53.238;5.686;2023-04-01T17:25:16;8.40;99.90
56512;DHT22;42408;53.238;5.686;2023-04-01T17:32:55;8.40;99.90
56512;DHT22;42408;53.238;5.686;2023-04-01T17:41:40;8.30;99.90
56512;DHT22;42408;53.238;5.686;2023-04-01T17:44:33;8.30;99.90
56512;DHT22;42408;53.238;5.686;2023-04-01T17:47:13;8.30;99.90
56512;DHT22;42408;53.238;5.686;2023-04-01T17:52:32;8.20;99.90
56512;DHT22;42408;53.238;5.686;2023-04-01T17:58:22;8.20;99.90
56512;DHT22;42408;53.238;5.686;2023-04-01T18:01:02;8.20;99.90
56512;DHT22;42408;53.238;5.686;2023-04-01T18:09:52;8.20;99.90
56512;DHT22;42408;53.238;5.686;2023-04-01T18:15:59;8.20;99.90
56512;DHT22;42408;53.238;5.686;2023-04-01T18:22:07;8.20;99.90
56512;DHT22;42408;53.238;5.686;2023-04-01T18:27:44;8.10;99.90
56512;DHT22;42408;53.238;5.686;2023-04-01T18:30:32;8.20;99.90
56512;DHT22;42408;53.238;5.686;2023-04-01T18:33:29;8.20;99.90
56512;DHT22;42408;53.238;5.686;2023-04-01T18:36:16;8.10;99.90
56512;DHT22;42408;53.238;5.686;2023-04-01T18:52:41;8.10;99.90
56512;DHT22;42408;53.238;5.686;2023-04-01T18:55:24;8.10;99.90
56512;DHT22;42408;53.238;5.686;2023-04-01T18:58:11;8.00;99.90
56512;DHT22;42408;53.238;5.686;2023-04-01T19:00:43;8.10;99.90
56512;DHT22;42408;53.238;5.686;2023-04-01T19:06:00;8.00;99.90
56512;DHT22;42408;53.238;5.686;2023-04-01T19:08:40;8.00;99.90
56512;DHT22;42408;53.238;5.686;2023-04-01T19:11:37;7.90;99.90
56512;DHT22;42408;53.238;5.686;2023-04-01T19:14:53;7.90;99.90
56512;DHT22;42408;53.238;5.686;2023-04-01T19:17:32;7.90;99.90
56512;DHT22;42408;53.238;5.686;2023-04-01T19:20:13;8.00;99.90
56512;DHT22;42408;53.238;5.686;2023-04-01T19:25:51;7.90;99.90
56512;DHT22;42408;53.238;5.686;2023-04-01T19:31:32;7.90;99.90
56512;DHT22;42408;53.238;5.686;2023-04-01T19:55:03;7.70;99.90
56512;DHT22;42408;53.238;5.686;2023-04-01T19:57:51;7.70;99.90
56512;DHT22;42408;53.238;5.686;2023-04-01T20:00:40;7.80;99.90
56512;DHT22;42408;53.238;5.686;2023-04-01T20:03:34;7.70;99.90
56512;DHT22;42408;53.238;5.686;2023-04-01T20:08:49;7.60;99.90
56512;DHT22;42408;53.238;5.686;2023-04-01T20:14:23;7.70;99.90
56512;DHT22;42408;53.238;5.686;2023-04-01T20:19:45;7.60;99.90
56512;DHT22;42408;53.238;5.686;2023-04-01T20:22:28;7.60;99.90
56512;DHT22;42408;53.238;5.686;2023-04-01T20:25:02;7.70;99.90
56512;DHT22;42408;53.238;5.686;2023-04-01T20:27:38;7.50;99.90
56512;DHT22;42408;53.238;5.686;2023-04-01T20:30:43;7.60;99.90
56512;DHT22;42408;53.238;5.686;2023-04-01T20:46:56;7.50;99.90
56512;DHT22;42408;53.238;5.686;2023-04-01T21:00:50;7.40;99.90
56512;DHT22;42408;53.238;5.686;2023-04-01T21:03:38;7.40;99.90
56512;DHT22;42408;53.238;5.686;2023-04-01T21:08:53;7.40;99.90
56512;DHT22;42408;53.238;5.686;2023-04-01T21:11:42;7.30;99.90
56512;DHT22;42408;53.238;5.686;2023-04-01T21:14:33;7.30;99.90
56512;DHT22;42408;53.238;5.686;2023-04-01T21:31:24;7.20;99.90
56512;DHT22;42408;53.238;5.686;2023-04-01T21:34:31;7.20;99.90
56512;DHT22;42408;53.238;5.686;2023-04-01T21:37:22;7.20;99.90
56512;DHT22;42408;53.238;5.686;2023-04-01T21:43:10;7.20;99.90
56512;DHT22;42408;53.238;5.686;2023-04-01T21:51:39;7.10;99.90
56512;DHT22;42408;53.238;5.686;2023-04-01T22:02:35;7.10;99.90
56512;DHT22;42408;53.238;5.686;2023-04-01T22:08:10;7.10;99.90
56512;DHT22;42408;53.238;5.686;2023-04-01T22:10:51;7.10;99.90
56512;DHT22;42408;53.238;5.686;2023-04-01T22:13:31;7.00;99.90
56512;DHT22;42408;53.238;5.686;2023-04-01T22:16:02;7.00;99.90
56512;DHT22;42408;53.238;5.686;2023-04-01T22:18:34;6.90;99.90
56512;DHT22;42408;53.238;5.686;2023-04-01T22:21:12;6.90;99.90
56512;DHT22;42408;53.238;5.686;2023-04-01T22:23:44;6.90;99.90
56512;DHT22;42408;53.238;5.686;2023-04-01T22:26:19;7.00;99.90
56512;DHT22;42408;53.238;5.686;2023-04-01T22:29:08;6.90;99.90
56512;DHT22;42408;53.238;5.686;2023-04-01T22:31:52;6.90;99.90
56512;DHT22;42408;53.238;5.686;2023-04-01T22:56:00;6.70;99.90
56512;DHT22;42408;53.238;5.686;2023-04-01T22:58:34;6.70;99.90
56512;DHT22;42408;53.238;5.686;2023-04-01T23:01:06;6.70;99.90
56512;DHT22;42408;53.238;5.686;2023-04-01T23:03:36;6.70;99.90
56512;DHT22;42408;53.238;5.686;2023-04-01T23:06:06;6.60;99.90
56512;DHT22;42408;53.238;5.686;2023-04-01T23:09:04;6.60;99.90
56512;DHT22;42408;53.238;5.686;2023-04-01T23:11:51;6.60;99.90
56512;DHT22;42408;53.238;5.686;2023-04-01T23:28:49;6.10;99.90
56512;DHT22;42408;53.238;5.686;2023-04-01T23:31:45;6.00;99.90
56512;DHT22;42408;53.238;5.686;2023-04-01T23:36:43;5.90;99.90
56512;DHT22;42408;53.238;5.686;2023-04-01T23:44:38;5.80;99.90
56512;DHT22;42408;53.238;5.686;2023-04-01T23:47:06;5.80;99.90
56512;DHT22;42408;53.238;5.686;2023-04-01T23:49:40;5.70;99.90
56512;DHT22;42408;53.238;5.686;2023-04-01T23:52:24;5.70;99.90
56512;DHT22;42408;53.238;5.686;2023-04-01T23:54:58;5.70;99.90
56512;DHT22;42408;53.238;5.686;2023-04-01T23:57:34;5.70;99.90
